ITA2334 ESGG-LRTR
Flight info
| Callsign | ITA2334 |
|---|---|
| Flight time | N/A |
| Altitude | 39000 |
| Route | TOPLA3J TOPLA DCT KEKOV DCT POKEN Z491 VAVUN L996 DENKO L619 XIDNA L617 REGLI DCT BILNA DCT AMRAX DCT ARCAZ/N0425F380 DCT MAVIT MAVIT3B |
| Aircraft | A20N/M-SDE2E3FGHIRWXY/LB1 |
Departure
| Time | 2026-05-04 17:16 |
|---|---|
| Airport | Göteborg Landvetter Airport (ESGG) |
Arrival
| Time | N/A |
|---|---|
| Airport | Timișoara Traian Vuia International Airport (LRTR) |
| Time | Latitude | Longitude | Altitude | Speed | Heading |
|---|---|---|---|---|---|
| 2026-05-04 16:46 | 57.66307 | 12.28963 | 521 ft | 0 kts | 116° |
| 2026-05-04 17:04 | 57.66318 | 12.28921 | 521 ft | 2 kts | 116° |
| 2026-05-04 17:04 | 57.66335 | 12.28865 | 522 ft | 2 kts | 162° |
| 2026-05-04 17:05 | 57.66344 | 12.28860 | 521 ft | 0 kts | 193° |
| 2026-05-04 17:08 | 57.66317 | 12.28855 | 521 ft | 0 kts | 188° |
| 2026-05-04 17:08 | 57.66310 | 12.28856 | 521 ft | 0 kts | 172° |
| 2026-05-04 17:10 | 57.66304 | 12.28851 | 521 ft | 0 kts | 204° |
| 2026-05-04 17:10 | 57.66248 | 12.28684 | 520 ft | 10 kts | 276° |
| 2026-05-04 17:11 | 57.66285 | 12.28510 | 520 ft | 18 kts | 296° |
| 2026-05-04 17:11 | 57.66365 | 12.28404 | 521 ft | 18 kts | 19° |
| 2026-05-04 17:11 | 57.66629 | 12.28639 | 523 ft | 19 kts | 26° |
| 2026-05-04 17:12 | 57.66778 | 12.28772 | 525 ft | 28 kts | 28° |
| 2026-05-04 17:12 | 57.66944 | 12.28928 | 527 ft | 21 kts | 26° |
| 2026-05-04 17:13 | 57.67340 | 12.29287 | 531 ft | 26 kts | 26° |
| 2026-05-04 17:14 | 57.67457 | 12.29284 | 532 ft | 1 kts | 295° |
| 2026-05-04 17:14 | 57.67460 | 12.29208 | 531 ft | 13 kts | 264° |
| 2026-05-04 17:14 | 57.67396 | 12.28989 | 530 ft | 4 kts | 207° |
| 2026-05-04 17:15 | 57.67305 | 12.28908 | 530 ft | 39 kts | 205° |
| 2026-05-04 17:15 | 57.66081 | 12.27795 | 517 ft | 152 kts | 206° |
| 2026-05-04 17:16 | 57.63805 | 12.25781 | 1210 ft | 191 kts | 207° |
| 2026-05-04 17:16 | 57.59981 | 12.23802 | 3627 ft | 210 kts | 193° |
| 2026-05-04 17:17 | 57.58526 | 12.23320 | 4511 ft | 213 kts | 193° |
| 2026-05-04 17:17 | 57.54145 | 12.21573 | 7108 ft | 220 kts | 203° |
| 2026-05-04 17:18 | 57.52738 | 12.20405 | 7927 ft | 222 kts | 211° |
| 2026-05-04 17:18 | 57.50241 | 12.17028 | 9309 ft | 225 kts | 226° |
| 2026-05-04 17:19 | 57.48300 | 12.12433 | 10527 ft | 230 kts | 241° |
| 2026-05-04 17:19 | 57.47070 | 12.06929 | 11748 ft | 233 kts | 256° |
| 2026-05-04 17:20 | 57.46662 | 12.00907 | 12904 ft | 238 kts | 271° |
| 2026-05-04 17:20 | 57.46996 | 11.94737 | 14017 ft | 242 kts | 273° |
| 2026-05-04 17:20 | 57.46861 | 11.91600 | 14449 ft | 249 kts | 251° |
| 2026-05-04 17:21 | 57.44445 | 11.86954 | 15185 ft | 265 kts | 201° |
| 2026-05-04 17:21 | 57.40793 | 11.85270 | 14820 ft | 266 kts | 189° |